Time;durP1;ratioP1;P1;durP2;ratioP2;P2;SDS_P1;SDS_P2;PMS_P1;PMS_P2;Temp;Humidity;BMP_temperature;BMP_pressure;BME280_temperature;BME280_humidity;BME280_pressure;Samples;Min_cycle;Max_cycle;Signal;HPM_P1;HPM_P2
2023/05/21 00:01:18;;;;;;;12.60;11.67;;;;;;;13.85;99.44;92701.47;5088270;28;20853;-72
2023/05/21 00:03:48;;;;;;;11.70;10.70;;;;;;;13.70;100.00;92698.41;5092381;28;20202;-70
2023/05/21 00:06:14;;;;;;;13.20;12.10;;;;;;;13.71;100.00;92708.59;5075825;28;20259;-71
2023/05/21 00:08:40;;;;;;;11.07;10.33;;;;;;;13.76;100.00;92710.38;5072168;28;20189;-71
2023/05/21 00:11:05;;;;;;;13.00;12.10;;;;;;;13.64;97.54;92699.59;5071208;28;20221;-71
2023/05/21 00:13:31;;;;;;;12.93;11.83;;;;;;;13.62;98.07;92699.13;5072077;28;20193;-71
2023/05/21 00:15:56;;;;;;;12.77;11.87;;;;;;;13.75;98.66;92701.72;5071482;28;20235;-70
2023/05/21 00:18:24;;;;;;;11.97;10.73;;;;;;;13.62;98.18;92699.88;5071518;28;20205;-71
2023/05/21 00:20:49;;;;;;;12.97;11.90;;;;;;;13.53;96.07;92699.03;5083050;28;20216;-71
2023/05/21 00:23:17;;;;;;;11.50;10.43;;;;;;;13.67;96.37;92701.63;5091813;28;20215;-71
2023/05/21 00:25:43;;;;;;;12.53;11.53;;;;;;;13.53;97.21;92695.63;5091297;28;20221;-71
2023/05/21 00:28:09;;;;;;;12.27;11.20;;;;;;;13.71;96.79;92692.09;5092132;28;20181;-72
2023/05/21 00:30:34;;;;;;;11.87;10.70;;;;;;;13.59;97.49;92692.59;5090869;28;20239;-71
2023/05/21 00:33:01;;;;;;;13.07;12.10;;;;;;;13.33;94.59;92656.69;5091505;28;20184;-71
2023/05/21 00:35:27;;;;;;;11.70;10.70;;;;;;;13.56;95.53;92695.81;5092428;28;20258;-71
2023/05/21 00:37:52;;;;;;;11.53;10.73;;;;;;;13.74;94.79;92687.03;5100915;28;20180;-71
2023/05/21 00:40:18;;;;;;;12.30;11.37;;;;;;;13.62;96.65;92683.38;5089465;28;20229;-72
2023/05/21 00:42:46;;;;;;;12.67;11.73;;;;;;;13.58;97.25;92685.03;5091425;28;20172;-71
2023/05/21 00:45:13;;;;;;;12.47;11.47;;;;;;;13.45;95.66;92683.97;5073232;28;20229;-73
2023/05/21 00:47:40;;;;;;;11.87;10.97;;;;;;;13.45;96.17;92681.34;5091407;28;20192;-72
2023/05/21 00:50:07;;;;;;;12.13;11.13;;;;;;;13.46;96.12;92682.91;5090471;28;20909;-71
2023/05/21 00:52:40;;;;;;;12.27;11.17;;;;;;;13.44;97.16;92671.94;5091308;28;20192;-71
2023/05/21 00:55:07;;;;;;;12.90;11.57;;;;;;;13.47;98.25;92673.97;5090756;28;20251;-72
2023/05/21 00:57:33;;;;;;;13.53;12.40;;;;;;;13.58;96.69;92667.44;5090773;28;20679;-71
2023/05/21 00:59:59;;;;;;;13.33;12.20;;;;;;;13.66;96.90;92684.34;5089274;28;21149;-72
2023/05/21 01:02:24;;;;;;;12.57;11.67;;;;;;;13.61;98.85;92677.34;5090862;28;20185;-71
2023/05/21 01:04:53;;;;;;;13.67;12.17;;;;;;;13.58;100.00;92674.53;5090254;28;20220;-73
2023/05/21 01:07:18;;;;;;;14.90;13.70;;;;;;;13.66;100.00;92679.09;5090792;28;20189;-72
2023/05/21 01:09:44;;;;;;;14.67;13.27;;;;;;;13.53;100.00;92659.69;5072390;28;20235;-72
2023/05/21 01:12:11;;;;;;;18.97;13.83;;;;;;;13.60;100.00;92675.03;5101199;28;20180;-72
2023/05/21 01:14:38;;;;;;;14.43;13.30;;;;;;;13.56;100.00;92658.31;5090527;28;20185;-72
2023/05/21 01:17:09;;;;;;;14.10;12.90;;;;;;;13.36;100.00;92659.50;5090625;28;20192;-72
2023/05/21 01:19:35;;;;;;;14.93;13.57;;;;;;;13.45;100.00;92657.75;5089852;28;20726;-72
2023/05/21 01:22:04;;;;;;;14.17;11.50;;;;;;;13.56;100.00;92661.72;5090875;28;20187;-71
2023/05/21 01:24:30;;;;;;;12.83;11.43;;;;;;;13.57;100.00;92660.63;5089762;28;20209;-72
2023/05/21 01:26:57;;;;;;;12.57;11.50;;;;;;;13.53;100.00;92646.56;5090769;28;20207;-72
2023/05/21 01:29:23;;;;;;;11.23;10.27;;;;;;;13.65;100.00;92662.56;5090157;28;20203;-72
2023/05/21 01:32:13;;;;;;;11.83;10.87;;;;;;;13.75;100.00;92657.09;5089361;28;20220;-72
2023/05/21 01:35:06;;;;;;;13.57;12.40;;;;;;;13.73;100.00;92659.25;5089888;28;20188;-72
2023/05/21 01:37:39;;;;;;;18.77;14.63;;;;;;;13.57;100.00;92639.66;5098725;28;20199;-71
2023/05/21 01:40:10;;;;;;;14.73;13.53;;;;;;;13.61;100.00;92647.72;5089503;28;20279;-72
2023/05/21 01:42:39;;;;;;;14.70;13.43;;;;;;;13.57;100.00;92654.63;5072796;28;20184;-72
2023/05/21 01:45:07;;;;;;;13.67;12.57;;;;;;;13.61;100.00;92651.13;5090334;28;20317;-72
2023/05/21 01:47:35;;;;;;;13.80;12.60;;;;;;;13.58;100.00;92656.16;5090265;28;20181;-72
2023/05/21 01:50:03;;;;;;;15.77;14.27;;;;;;;13.41;100.00;92651.56;5105349;28;20232;-72
2023/05/21 01:52:29;;;;;;;14.60;13.30;;;;;;;13.41;100.00;92646.31;5089682;28;20185;-72
2023/05/21 01:54:56;;;;;;;16.43;14.87;;;;;;;13.16;100.00;92640.78;5089466;28;20243;-71
2023/05/21 01:57:21;;;;;;;15.73;14.20;;;;;;;13.26;100.00;92637.97;5090490;28;20188;-71
2023/05/21 01:59:47;;;;;;;16.90;15.23;;;;;;;13.23;100.00;92628.84;5105418;28;20291;-72
2023/05/21 02:02:12;;;;;;;16.93;15.00;;;;;;;13.28;100.00;92644.47;5091272;28;20199;-72
2023/05/21 02:04:40;;;;;;;16.67;14.87;;;;;;;13.22;100.00;92648.25;5089396;28;20209;-72
2023/05/21 02:07:06;;;;;;;16.77;15.00;;;;;;;13.07;100.00;92635.47;5089788;28;20176;-72
2023/05/21 02:09:31;;;;;;;23.27;15.77;;;;;;;13.12;100.00;92630.09;5089567;28;20240;-72
2023/05/21 02:11:57;;;;;;;21.07;15.00;;;;;;;13.08;100.00;92641.47;5100220;28;20180;-72
2023/05/21 02:14:24;;;;;;;17.43;15.73;;;;;;;12.92;100.00;92636.50;5089762;28;20192;-74
2023/05/21 02:16:51;;;;;;;17.93;15.53;;;;;;;12.80;100.00;92645.91;5090184;28;20272;-71
2023/05/21 02:19:17;;;;;;;18.50;15.90;;;;;;;12.70;100.00;92641.63;5089231;28;20184;-71
2023/05/21 02:21:42;;;;;;;17.30;15.37;;;;;;;12.49;100.00;92626.59;5089189;28;20220;-72
2023/05/21 02:24:07;;;;;;;16.57;14.67;;;;;;;12.57;100.00;92634.56;5089536;28;20195;-70
2023/05/21 02:26:33;;;;;;;17.53;15.80;;;;;;;12.58;100.00;92636.09;5089781;28;20221;-72
2023/05/21 02:28:59;;;;;;;17.70;16.10;;;;;;;12.38;100.00;92627.81;5089548;28;20177;-72
2023/05/21 02:31:24;;;;;;;16.03;14.50;;;;;;;12.29;100.00;92616.47;5089122;28;20219;-71
2023/05/21 02:33:49;;;;;;;14.30;13.10;;;;;;;12.28;100.00;92622.78;5089085;28;20234;-71
2023/05/21 02:36:17;;;;;;;13.50;12.40;;;;;;;12.27;100.00;92627.22;5097216;28;20218;-72
2023/05/21 02:38:44;;;;;;;13.53;12.30;;;;;;;12.37;100.00;92626.28;5089717;28;20208;-72
2023/05/21 02:41:12;;;;;;;14.07;12.77;;;;;;;12.25;100.00;92612.88;5089151;28;20217;-72
2023/05/21 02:43:38;;;;;;;14.50;13.30;;;;;;;12.65;100.00;92622.63;5084537;28;20189;-71
2023/05/21 02:46:05;;;;;;;13.07;12.03;;;;;;;12.70;100.00;92627.78;5086213;28;20213;-73
2023/05/21 02:48:30;;;;;;;11.90;10.70;;;;;;;12.64;100.00;92621.06;5076004;28;20177;-71
2023/05/21 02:50:58;;;;;;;12.50;11.57;;;;;;;12.51;100.00;92624.47;5092492;28;20258;-71
2023/05/21 02:53:23;;;;;;;12.47;11.47;;;;;;;12.61;100.00;92621.63;5093615;28;20625;-72
2023/05/21 02:55:49;;;;;;;14.13;12.67;;;;;;;12.74;100.00;92626.91;5092974;28;20248;-70
2023/05/21 02:58:14;;;;;;;12.33;11.27;;;;;;;12.87;100.00;92626.13;5093477;28;20177;-71
2023/05/21 03:00:40;;;;;;;11.97;11.07;;;;;;;12.89;98.71;92628.44;5092373;28;20236;-71
2023/05/21 03:03:06;;;;;;;13.50;12.37;;;;;;;13.09;98.93;92628.06;5075468;28;20180;-72
2023/05/21 03:05:31;;;;;;;11.90;11.00;;;;;;;13.10;98.45;92621.78;5074695;28;20915;-70
2023/05/21 03:07:56;;;;;;;11.60;10.47;;;;;;;12.95;98.57;92633.31;5092846;28;20184;-72
2023/05/21 03:10:22;;;;;;;12.50;11.40;;;;;;;12.80;98.41;92623.13;5075208;28;20228;-70
2023/05/21 03:12:47;;;;;;;10.87;9.97;;;;;;;13.01;97.17;92636.66;5103655;28;20193;-71
2023/05/21 03:15:13;;;;;;;11.60;10.70;;;;;;;12.97;97.03;92622.53;5091533;28;20224;-71
2023/05/21 03:17:41;;;;;;;12.50;11.50;;;;;;;13.03;96.62;92629.25;5092956;28;20188;-72
2023/05/21 03:20:14;;;;;;;13.33;12.33;;;;;;;13.07;96.79;92625.00;5092124;28;20330;-71
2023/05/21 03:22:40;;;;;;;13.10;11.90;;;;;;;13.41;95.14;92646.31;5092877;28;20188;-71
2023/05/21 03:25:05;;;;;;;11.83;11.03;;;;;;;13.45;95.85;92636.75;5092163;28;20220;-71
2023/05/21 03:27:31;;;;;;;12.03;11.03;;;;;;;13.36;96.41;92649.03;5093159;28;20223;-70
2023/05/21 03:29:58;;;;;;;13.13;12.13;;;;;;;13.36;95.61;92637.75;5092344;28;20227;-70
2023/05/21 03:32:23;;;;;;;12.00;11.20;;;;;;;13.57;95.98;92652.00;5093046;28;20181;-71
2023/05/21 03:34:48;;;;;;;13.50;12.20;;;;;;;13.46;94.67;92651.44;5091752;28;20253;-70
2023/05/21 03:37:14;;;;;;;12.67;11.77;;;;;;;13.57;94.80;92644.88;5100215;28;20235;-72
2023/05/21 03:39:39;;;;;;;11.33;10.50;;;;;;;13.47;94.60;92642.50;5092058;28;20205;-72
2023/05/21 03:42:05;;;;;;;14.83;11.07;;;;;;;13.57;94.78;92639.66;5092593;28;20199;-71
2023/05/21 03:44:32;;;;;;;12.30;11.20;;;;;;;13.50;92.10;92649.78;5091980;28;20242;-72
2023/05/21 03:46:57;;;;;;;11.63;10.63;;;;;;;13.57;93.30;92641.50;5092249;28;20216;-70
2023/05/21 03:49:24;;;;;;;14.43;11.97;;;;;;;13.65;92.31;92640.81;5074195;28;20189;-71
2023/05/21 03:51:50;;;;;;;11.80;10.80;;;;;;;13.75;91.90;92646.59;5092038;28;20195;-71
2023/05/21 03:54:15;;;;;;;12.27;11.47;;;;;;;13.80;91.92;92654.38;5091707;28;20177;-71
2023/05/21 03:56:41;;;;;;;13.03;11.93;;;;;;;13.92;89.35;92646.75;5079706;28;20227;-71
2023/05/21 03:59:06;;;;;;;12.17;11.27;;;;;;;13.91;91.51;92650.47;5091801;28;20212;-72
2023/05/21 04:01:32;;;;;;;12.40;11.50;;;;;;;13.87;91.88;92641.59;5092099;28;20284;-72
2023/05/21 04:03:57;;;;;;;12.83;11.63;;;;;;;14.01;88.58;92649.41;5092076;28;20206;-70
2023/05/21 04:06:23;;;;;;;12.57;11.40;;;;;;;14.16;88.27;92652.47;5091710;28;20220;-72
2023/05/21 04:08:48;;;;;;;12.43;11.33;;;;;;;13.99;88.99;92652.34;5091606;28;20192;-71
2023/05/21 04:11:14;;;;;;;12.10;11.30;;;;;;;13.92;89.09;92636.25;5095630;28;20239;-72
2023/05/21 04:13:39;;;;;;;11.93;10.87;;;;;;;14.01;87.87;92655.44;5093399;28;20185;-72
2023/05/21 04:16:07;;;;;;;11.60;10.70;;;;;;;14.13;87.51;92657.56;5091604;28;20315;-70
2023/05/21 04:18:33;;;;;;;11.33;10.53;;;;;;;14.12;87.84;92648.91;5091950;28;20306;-70
2023/05/21 04:20:59;;;;;;;12.23;11.17;;;;;;;14.18;87.40;92660.03;5091232;28;20228;-71
2023/05/21 04:23:24;;;;;;;11.90;10.90;;;;;;;14.26;87.05;92656.75;5091164;28;20200;-69
2023/05/21 04:25:50;;;;;;;12.13;11.20;;;;;;;14.38;86.18;92657.75;5091164;28;20235;-68
2023/05/21 04:28:18;;;;;;;12.17;11.27;;;;;;;14.33;85.06;92636.09;5091633;28;20196;-69
2023/05/21 04:30:45;;;;;;;12.03;11.20;;;;;;;14.40;85.56;92655.59;5091098;28;20213;-68
2023/05/21 04:33:10;;;;;;;11.27;10.47;;;;;;;14.56;86.06;92642.88;5091531;28;20203;-68
2023/05/21 04:35:36;;;;;;;11.43;10.67;;;;;;;14.80;83.73;92663.53;5093851;28;20228;-70
2023/05/21 04:38:04;;;;;;;12.00;11.00;;;;;;;14.66;85.19;92660.22;5096838;28;20201;-66
2023/05/21 04:40:29;;;;;;;11.73;10.63;;;;;;;14.67;85.33;92664.41;5091190;28;20234;-69
2023/05/21 04:42:55;;;;;;;11.87;10.70;;;;;;;14.69;85.87;92654.38;5090982;28;20208;-69
2023/05/21 04:45:23;;;;;;;11.10;10.30;;;;;;;15.04;84.56;92671.84;5090759;28;20221;-71
2023/05/21 04:47:48;;;;;;;12.13;10.40;;;;;;;15.10;83.78;92653.00;5090865;28;20211;-70
2023/05/21 04:50:14;;;;;;;12.03;10.93;;;;;;;15.29;81.48;92663.25;5090800;28;20232;-70
2023/05/21 04:52:39;;;;;;;11.87;10.93;;;;;;;15.88;79.81;92665.25;5091199;28;20189;-71
2023/05/21 04:55:06;;;;;;;11.80;11.00;;;;;;;16.25;77.51;92671.78;5090344;28;20288;-70
2023/05/21 04:57:32;;;;;;;12.73;11.63;;;;;;;16.83;75.87;92680.69;5091598;28;20276;-71
2023/05/21 04:59:57;;;;;;;11.80;10.47;;;;;;;17.16;73.52;92663.22;5090312;28;20228;-70
2023/05/21 05:02:22;;;;;;;12.03;10.97;;;;;;;16.65;74.18;92644.94;5091146;28;20196;-70
2023/05/21 05:04:48;;;;;;;10.70;9.93;;;;;;;16.57;73.83;92672.06;5090219;28;20254;-70
2023/05/21 05:07:14;;;;;;;12.40;11.60;;;;;;;16.65;74.63;92668.66;5089925;28;20175;-70
2023/05/21 05:09:39;;;;;;;11.70;10.80;;;;;;;16.59;73.45;92669.88;5090386;28;20181;-71
2023/05/21 05:12:05;;;;;;;12.60;11.60;;;;;;;16.54;75.56;92667.44;5089787;28;20257;-69
2023/05/21 05:14:30;;;;;;;10.73;10.00;;;;;;;16.91;73.51;92674.63;5090023;28;20211;-69
2023/05/21 05:16:59;;;;;;;13.80;10.70;;;;;;;17.15;72.54;92677.47;5090177;28;20204;-69
2023/05/21 05:19:25;;;;;;;12.30;11.30;;;;;;;17.34;71.82;92672.59;5089924;28;20177;-70
2023/05/21 05:21:51;;;;;;;14.07;11.47;;;;;;;18.52;66.60;92671.38;5090442;28;20248;-69
2023/05/21 05:24:16;;;;;;;10.73;9.93;;;;;;;18.61;67.15;92680.00;5090508;28;20215;-68
2023/05/21 05:26:41;;;;;;;12.97;11.73;;;;;;;18.21;70.23;92665.72;5089943;28;20230;-70
2023/05/21 05:29:07;;;;;;;11.10;10.20;;;;;;;17.88;68.38;92673.56;5090397;28;20216;-70
2023/05/21 05:31:32;;;;;;;11.73;10.83;;;;;;;17.48;69.60;92665.25;5089926;28;20219;-67
2023/05/21 05:33:58;;;;;;;11.63;10.53;;;;;;;18.14;67.23;92681.31;5090296;28;20181;-72
2023/05/21 05:36:23;;;;;;;11.30;10.20;;;;;;;18.28;67.15;92676.53;5097957;28;20227;-70
2023/05/21 05:38:48;;;;;;;10.90;9.73;;;;;;;18.80;64.34;92667.06;5090185;28;20935;-71
2023/05/21 05:41:14;;;;;;;10.63;9.73;;;;;;;18.09;69.82;92673.56;5089417;28;20229;-70
2023/05/21 05:43:39;;;;;;;11.17;10.37;;;;;;;19.05;64.49;92658.09;5090118;28;20197;-69
2023/05/21 05:46:05;;;;;;;11.50;10.33;;;;;;;18.59;65.43;92667.09;5088234;28;20239;-71
2023/05/21 05:48:30;;;;;;;11.37;10.40;;;;;;;19.15;63.33;92676.94;5090136;28;20235;-69
2023/05/21 05:50:56;;;;;;;11.27;10.40;;;;;;;19.03;64.48;92671.66;5089212;28;20235;-68
2023/05/21 05:53:21;;;;;;;10.67;9.57;;;;;;;19.18;62.88;92670.22;5089970;28;20190;-68
2023/05/21 05:55:47;;;;;;;11.43;10.60;;;;;;;19.01;64.45;92671.19;5088952;28;20220;-69
2023/05/21 05:58:12;;;;;;;10.93;10.07;;;;;;;19.05;66.53;92663.38;5089994;28;20187;-69
2023/05/21 06:00:38;;;;;;;10.70;9.80;;;;;;;19.30;65.10;92672.16;5089683;28;20252;-69
2023/05/21 06:03:04;;;;;;;10.40;9.60;;;;;;;19.53;63.28;92674.03;5089841;28;20195;-68
2023/05/21 06:05:29;;;;;;;10.23;9.43;;;;;;;19.14;66.51;92667.44;5089510;28;20226;-73
2023/05/21 06:07:55;;;;;;;12.70;9.90;;;;;;;19.41;65.11;92666.06;5089694;28;20252;-74
2023/05/21 06:10:20;;;;;;;10.83;9.20;;;;;;;20.09;61.79;92678.41;5089565;28;20226;-70
2023/05/21 06:12:46;;;;;;;11.10;10.20;;;;;;;20.20;58.97;92670.78;5089831;28;20215;-70
2023/05/21 06:15:13;;;;;;;10.27;9.47;;;;;;;20.83;62.42;92675.16;5089529;28;20246;-70
2023/05/21 06:17:39;;;;;;;11.63;10.77;;;;;;;20.38;60.11;92662.22;5089111;28;20208;-71
2023/05/21 06:20:07;;;;;;;11.33;10.10;;;;;;;20.39;59.58;92658.44;5089651;28;20238;-71
2023/05/21 06:22:33;;;;;;;10.90;10.00;;;;;;;21.69;56.02;92667.13;5088968;28;20212;-71
2023/05/21 06:24:58;;;;;;;11.23;10.23;;;;;;;22.44;54.37;92667.63;5088955;28;20231;-71
2023/05/21 06:27:24;;;;;;;11.15;10.23;;;;;;;23.41;49.38;92667.19;5089776;28;20178;-71
2023/05/21 06:29:50;;;;;;;10.25;9.48;;;;;;;22.27;51.23;92664.59;5088850;28;20289;-70
2023/05/21 06:32:15;;;;;;;10.45;9.65;;;;;;;20.86;55.39;92641.88;5090122;28;20178;-71
2023/05/21 06:34:40;;;;;;;10.57;9.77;;;;;;;20.37;56.92;92649.28;5089348;28;20203;-71
2023/05/21 06:37:06;;;;;;;11.65;10.75;;;;;;;20.65;56.82;92650.81;5098001;28;20220;-72
2023/05/21 06:39:31;;;;;;;12.10;9.60;;;;;;;19.79;63.21;92650.63;5089320;28;20191;-68
2023/05/21 06:41:57;;;;;;;11.60;10.63;;;;;;;19.81;61.23;92648.41;5089285;28;20188;-68
2023/05/21 06:44:22;;;;;;;12.30;11.13;;;;;;;19.58;62.36;92628.75;5071368;28;20203;-71
2023/05/21 06:46:47;;;;;;;12.07;10.97;;;;;;;19.84;61.84;92649.59;5089240;28;20199;-68
2023/05/21 06:49:13;;;;;;;11.90;10.40;;;;;;;20.22;60.82;92642.03;5089678;28;20900;-67
2023/05/21 06:51:39;;;;;;;14.10;10.07;;;;;;;20.64;59.60;92643.97;5087722;28;20884;-67
2023/05/21 06:54:04;;;;;;;11.38;10.55;;;;;;;20.28;60.42;92641.47;5089179;28;20194;-68
2023/05/21 06:56:30;;;;;;;11.80;10.80;;;;;;;20.82;57.93;92606.50;5089174;28;20313;-67
2023/05/21 06:58:55;;;;;;;10.77;9.73;;;;;;;20.75;56.95;92651.44;5089691;28;20211;-68
2023/05/21 07:01:21;;;;;;;10.77;9.88;;;;;;;21.50;54.69;92652.97;5088574;28;20239;-69
2023/05/21 07:03:47;;;;;;;10.63;9.75;;;;;;;21.41;54.35;92649.72;5089331;28;20184;-68
2023/05/21 07:06:13;;;;;;;10.70;9.80;;;;;;;21.32;55.20;92641.16;5088200;28;20256;-69
2023/05/21 07:08:38;;;;;;;10.87;10.07;;;;;;;21.26;54.50;92631.91;5076615;28;20253;-68
2023/05/21 07:11:03;;;;;;;12.00;9.63;;;;;;;21.06;54.44;92635.59;5091452;28;20234;-68
2023/05/21 07:13:29;;;;;;;10.70;9.88;;;;;;;20.76;54.30;92634.41;5097410;28;20218;-68
2023/05/21 07:15:54;;;;;;;10.50;9.63;;;;;;;20.90;53.81;92634.78;5088397;28;20218;-68
2023/05/21 07:18:20;;;;;;;10.73;9.88;;;;;;;20.76;55.49;92634.41;5089569;28;20192;-68
2023/05/21 07:20:45;;;;;;;10.70;9.90;;;;;;;20.67;52.36;92632.69;5088842;28;20228;-67
2023/05/21 07:23:10;;;;;;;11.20;10.30;;;;;;;20.57;54.62;92637.72;5089161;28;20194;-68
2023/05/21 07:25:36;;;;;;;11.27;10.37;;;;;;;20.47;55.61;92646.13;5088380;28;20227;-67
2023/05/21 07:28:01;;;;;;;10.93;10.13;;;;;;;20.09;53.23;92638.63;5089663;28;20206;-67
2023/05/21 07:30:27;;;;;;;12.83;9.63;;;;;;;20.19;53.02;92640.03;5089412;28;20216;-68
2023/05/21 07:32:52;;;;;;;10.23;9.43;;;;;;;20.57;53.84;92638.50;5074754;28;20212;-67
2023/05/21 07:35:19;;;;;;;10.48;9.60;;;;;;;20.86;54.95;92639.22;5092477;28;20238;-70
2023/05/21 07:37:45;;;;;;;10.20;9.52;;;;;;;20.48;56.49;92653.75;5096942;28;20200;-70
2023/05/21 07:40:11;;;;;;;10.32;9.43;;;;;;;20.22;54.84;92647.31;5091884;28;20287;-70
2023/05/21 07:42:37;;;;;;;11.17;9.73;;;;;;;20.00;56.23;92650.47;5092754;28;20188;-69
2023/05/21 07:45:02;;;;;;;11.53;10.53;;;;;;;20.03;57.78;92639.94;5091829;28;20287;-71
2023/05/21 07:47:28;;;;;;;11.47;10.33;;;;;;;20.05;56.81;92648.34;5092408;28;20191;-71
2023/05/21 07:49:53;;;;;;;10.93;10.00;;;;;;;19.69;57.01;92651.06;5091536;28;20242;-68
2023/05/21 07:52:19;;;;;;;11.57;10.60;;;;;;;19.66;59.10;92646.41;5092211;28;20249;-71
2023/05/21 07:54:44;;;;;;;11.63;10.33;;;;;;;19.52;58.27;92629.34;5092016;28;20216;-69
2023/05/21 07:57:10;;;;;;;11.03;9.93;;;;;;;19.29;60.70;92626.34;5092796;28;20189;-70
2023/05/21 07:59:35;;;;;;;11.20;10.17;;;;;;;19.55;59.97;92629.44;5091618;28;20200;-70
2023/05/21 08:02:00;;;;;;;11.23;10.23;;;;;;;19.66;61.47;92625.22;5091965;28;20206;-71
2023/05/21 08:04:26;;;;;;;10.50;9.70;;;;;;;20.17;58.94;92644.94;5091748;28;20232;-70
2023/05/21 08:06:52;;;;;;;10.63;9.67;;;;;;;20.41;59.42;92644.84;5092154;28;20197;-71
2023/05/21 08:09:18;;;;;;;11.33;10.23;;;;;;;21.04;57.83;92651.09;5092049;28;20180;-71
2023/05/21 08:11:44;;;;;;;10.93;10.00;;;;;;;21.41;57.42;92647.06;5091630;28;20223;-69
2023/05/21 08:14:10;;;;;;;10.63;9.75;;;;;;;21.61;54.76;92651.34;5092077;28;20185;-71
2023/05/21 08:16:36;;;;;;;10.45;9.55;;;;;;;21.54;52.44;92651.19;5091548;28;20303;-71
2023/05/21 08:19:02;;;;;;;10.90;10.00;;;;;;;20.94;56.24;92640.94;5091395;28;20207;-70
2023/05/21 08:21:27;;;;;;;12.73;9.63;;;;;;;21.32;52.92;92641.16;5091318;28;20219;-70
2023/05/21 08:23:52;;;;;;;10.82;9.93;;;;;;;21.00;49.89;92642.25;5091578;28;20198;-71
2023/05/21 08:26:18;;;;;;;10.45;9.57;;;;;;;20.90;52.20;92640.09;5091587;28;20231;-69
2023/05/21 08:28:43;;;;;;;11.27;10.10;;;;;;;20.69;52.30;92650.91;5090730;28;20190;-70
2023/05/21 08:31:09;;;;;;;12.75;9.90;;;;;;;20.46;54.53;92641.94;5090990;28;20236;-71
2023/05/21 08:33:37;;;;;;;10.90;10.10;;;;;;;20.10;52.72;92645.47;5091493;28;20188;-71
2023/05/21 08:36:06;;;;;;;10.23;9.53;;;;;;;19.76;51.21;92632.72;5097920;28;20227;-71
2023/05/21 08:38:31;;;;;;;10.33;9.53;;;;;;;19.70;51.06;92647.31;5092856;28;20183;-71
2023/05/21 08:40:58;;;;;;;11.00;9.97;;;;;;;19.92;51.08;92638.88;5090644;28;20287;-70
2023/05/21 08:43:26;;;;;;;10.73;9.73;;;;;;;20.22;51.07;92642.03;5107618;28;20219;-70
2023/05/21 08:45:57;;;;;;;11.37;10.07;;;;;;;20.95;50.79;92650.47;5073262;28;20943;-71
2023/05/21 08:48:23;;;;;;;10.70;9.60;;;;;;;21.60;50.11;92652.47;5091032;28;20211;-71
2023/05/21 08:50:53;;;;;;;9.63;8.75;;;;;;;21.77;49.40;92654.78;5090849;28;20254;-70
2023/05/21 08:53:19;;;;;;;10.10;9.07;;;;;;;21.92;49.64;92648.66;5073163;28;20241;-70
2023/05/21 08:55:45;;;;;;;10.00;9.15;;;;;;;21.45;52.01;92629.31;5072992;28;20244;-70
2023/05/21 08:58:12;;;;;;;10.07;9.27;;;;;;;21.48;51.17;92633.97;5091076;28;20196;-70
2023/05/21 09:00:37;;;;;;;10.73;9.50;;;;;;;21.42;51.69;92635.31;5090770;28;20262;-70
2023/05/21 09:03:09;;;;;;;10.20;9.50;;;;;;;21.29;52.46;92639.94;5090658;28;20192;-69
2023/05/21 09:05:34;;;;;;;10.50;9.65;;;;;;;20.85;56.64;92637.66;5090743;28;20237;-70
2023/05/21 09:08:28;;;;;;;9.95;9.27;;;;;;;21.29;54.38;92644.50;5090598;28;20188;-71
2023/05/21 09:10:54;;;;;;;10.38;9.68;;;;;;;21.50;53.41;92637.03;5091863;28;20239;-70
2023/05/21 09:13:19;;;;;;;10.45;9.60;;;;;;;21.88;50.86;92643.25;5100366;28;20187;-70
2023/05/21 09:15:46;;;;;;;10.23;9.43;;;;;;;21.44;50.39;92641.84;5090296;28;20561;-70
2023/05/21 09:18:12;;;;;;;10.35;9.45;;;;;;;21.01;50.53;92649.91;5090176;28;20210;-71
2023/05/21 09:20:38;;;;;;;9.63;8.82;;;;;;;20.32;56.31;92631.72;5090476;28;20231;-71
2023/05/21 09:23:15;;;;;;;10.35;9.45;;;;;;;20.98;52.45;92641.84;5090796;28;20210;-70
2023/05/21 09:25:43;;;;;;;10.55;9.35;;;;;;;20.95;49.52;92643.25;5089904;28;20226;-71
2023/05/21 09:28:13;;;;;;;9.88;8.95;;;;;;;20.91;50.73;92636.31;5090834;28;20188;-71
2023/05/21 09:30:46;;;;;;;9.88;9.00;;;;;;;21.03;48.96;92644.25;5089548;28;20287;-70
2023/05/21 09:33:23;;;;;;;9.63;9.00;;;;;;;20.65;47.18;92644.75;5089854;28;20190;-70
2023/05/21 09:35:49;;;;;;;9.82;9.02;;;;;;;20.86;45.67;92634.69;5094337;28;20223;-70
2023/05/21 09:38:15;;;;;;;9.18;8.38;;;;;;;21.14;44.39;92639.94;5094319;28;20202;-70
2023/05/21 09:40:45;;;;;;;10.52;9.60;;;;;;;21.13;44.90;92638.41;5089955;28;20280;-70
2023/05/21 09:43:14;;;;;;;10.10;9.20;;;;;;;21.05;49.26;92636.69;5090706;28;20194;-70
2023/05/21 09:45:50;;;;;;;9.25;8.40;;;;;;;20.95;47.10;92626.56;5090020;28;20224;-71
2023/05/21 09:48:16;;;;;;;10.30;9.30;;;;;;;20.52;47.88;92620.16;5089710;28;20914;-70
2023/05/21 09:50:41;;;;;;;9.30;8.60;;;;;;;20.96;48.04;92630.78;5089916;28;20221;-70
2023/05/21 09:53:12;;;;;;;9.70;9.10;;;;;;;20.83;43.75;92629.28;5089324;28;20218;-69
2023/05/21 09:55:38;;;;;;;9.43;8.77;;;;;;;20.60;45.43;92632.50;5089424;28;20769;-70
2023/05/21 09:58:04;;;;;;;11.80;10.70;;;;;;;19.99;47.59;92623.19;5090261;28;20184;-70
2023/05/21 10:00:30;;;;;;;9.67;8.97;;;;;;;20.27;47.29;92624.00;5089916;28;20232;-70
2023/05/21 10:03:00;;;;;;;9.63;8.95;;;;;;;20.56;45.08;92618.34;5089333;28;20215;-70
2023/05/21 10:05:30;;;;;;;10.02;9.07;;;;;;;20.64;43.24;92620.09;5089688;28;20228;-70
2023/05/21 10:08:00;;;;;;;11.07;10.10;;;;;;;20.26;47.07;92622.47;5089627;28;20191;-70
2023/05/21 10:10:27;;;;;;;9.52;8.93;;;;;;;20.52;45.34;92622.03;5089648;28;20289;-70
2023/05/21 10:13:13;;;;;;;9.65;8.90;;;;;;;20.90;45.97;92613.53;5100912;28;20292;-70
2023/05/21 10:15:44;;;;;;;8.82;8.32;;;;;;;21.01;44.58;92628.66;5089579;28;20220;-71
2023/05/21 10:18:12;;;;;;;9.15;8.57;;;;;;;21.19;44.77;92627.19;5089794;28;20233;-70
2023/05/21 10:20:38;;;;;;;9.50;8.90;;;;;;;21.43;41.79;92608.41;5089296;28;20258;-71
2023/05/21 10:23:03;;;;;;;11.52;9.88;;;;;;;21.74;40.56;92623.56;5089771;28;20234;-70
2023/05/21 10:25:31;;;;;;;9.95;9.25;;;;;;;21.34;41.66;92617.69;5089222;28;20219;-70
2023/05/21 10:27:57;;;;;;;10.00;9.38;;;;;;;21.21;42.07;92619.66;5090387;28;20174;-70
2023/05/21 10:30:23;;;;;;;10.07;9.27;;;;;;;21.12;42.58;92618.28;5089190;28;20244;-71
2023/05/21 10:32:48;;;;;;;10.07;9.18;;;;;;;21.15;42.57;92614.97;5089773;28;20188;-70
2023/05/21 10:35:17;;;;;;;9.93;9.20;;;;;;;20.57;42.44;92611.97;5093121;28;20231;-70
2023/05/21 10:37:44;;;;;;;13.30;10.57;;;;;;;20.69;44.14;92611.88;5081268;28;20268;-70
2023/05/21 10:40:10;;;;;;;10.60;9.07;;;;;;;20.66;43.41;92607.25;5088927;28;20910;-71
2023/05/21 10:42:54;;;;;;;10.27;9.57;;;;;;;20.67;44.52;92611.44;5089921;28;20195;-70
2023/05/21 10:45:46;;;;;;;9.98;9.07;;;;;;;20.67;43.73;92603.50;5089378;28;20247;-71
2023/05/21 10:48:36;;;;;;;11.25;10.35;;;;;;;20.89;44.40;92601.41;5087563;28;20271;-70
2023/05/21 10:51:02;;;;;;;9.82;8.93;;;;;;;21.21;43.13;92606.41;5088519;28;20233;-71
2023/05/21 10:53:52;;;;;;;9.57;8.68;;;;;;;21.04;43.43;92611.25;5089636;28;20212;-70
2023/05/21 10:56:39;;;;;;;10.30;9.30;;;;;;;20.60;45.42;92600.66;5089124;28;20228;-70
2023/05/21 10:59:17;;;;;;;10.55;9.15;;;;;;;20.29;44.91;92603.25;5085010;28;20277;-70
2023/05/21 11:01:43;;;;;;;10.50;9.57;;;;;;;20.08;48.29;92599.19;5089285;28;20254;-71
2023/05/21 11:04:11;;;;;;;11.17;10.17;;;;;;;20.01;46.88;92602.44;5072107;28;20207;-70
2023/05/21 11:06:36;;;;;;;11.50;10.40;;;;;;;20.05;47.69;92605.94;5092968;28;20230;-70
2023/05/21 11:09:12;;;;;;;11.00;10.10;;;;;;;19.74;48.19;92605.00;5092927;28;20194;-71
2023/05/21 11:11:43;;;;;;;11.13;9.27;;;;;;;19.97;48.92;92592.84;5100695;28;20240;-71
2023/05/21 11:14:39;;;;;;;11.73;10.83;;;;;;;20.22;49.60;92595.09;5095212;28;20190;-71
2023/05/21 11:17:08;;;;;;;12.47;11.17;;;;;;;20.56;48.89;92594.47;5071943;28;20216;-71
2023/05/21 11:19:35;;;;;;;10.88;9.68;;;;;;;21.02;48.64;92597.56;5074178;28;20193;-70